createdAt,value
2023-08-12T00:02:12.739Z,20.30
2023-08-12T00:04:40.203Z,20.20
2023-08-12T00:07:07.614Z,20.20
2023-08-12T00:09:35.032Z,20.20
2023-08-12T00:12:02.369Z,20.20
2023-08-12T00:14:29.766Z,20.10
2023-08-12T00:16:57.160Z,20.10
2023-08-12T00:19:24.589Z,20.10
2023-08-12T00:21:53.858Z,20.00
2023-08-12T00:24:21.541Z,20.00
2023-08-12T00:26:48.982Z,20.00
2023-08-12T00:29:16.337Z,20.00
2023-08-12T00:31:44.191Z,20.00
2023-08-12T00:34:11.546Z,20.00
2023-08-12T00:36:39.093Z,19.90
2023-08-12T00:39:07.287Z,19.90
2023-08-12T00:41:34.804Z,19.90
2023-08-12T00:44:03.389Z,19.90
2023-08-12T00:46:30.990Z,19.90
2023-08-12T00:48:58.368Z,19.80
2023-08-12T00:51:26.381Z,19.80
2023-08-12T00:53:53.751Z,19.80
2023-08-12T00:56:21.164Z,19.80
2023-08-12T00:58:48.867Z,19.70
2023-08-12T01:01:16.286Z,19.80
2023-08-12T01:03:43.890Z,19.70
2023-08-12T01:06:11.454Z,19.70
2023-08-12T01:08:38.841Z,19.60
2023-08-12T01:11:15.764Z,19.60
2023-08-12T01:13:51.660Z,19.60
2023-08-12T01:16:19.268Z,19.50
2023-08-12T01:18:46.807Z,19.50
2023-08-12T01:21:17.805Z,19.50
2023-08-12T01:23:46.118Z,19.40
2023-08-12T01:26:13.534Z,19.40
2023-08-12T01:28:40.901Z,19.40
2023-08-12T01:31:46.807Z,19.40
2023-08-12T01:34:21.659Z,19.30
2023-08-12T01:36:55.855Z,19.20
2023-08-12T01:39:24.566Z,19.20
2023-08-12T01:41:53.181Z,19.10
2023-08-12T01:44:20.582Z,19.10
2023-08-12T01:46:47.964Z,19.10
2023-08-12T01:49:15.390Z,19.10
2023-08-12T01:51:44.152Z,19.10
2023-08-12T01:54:11.521Z,19.00
2023-08-12T01:56:38.949Z,18.90
2023-08-12T01:59:07.523Z,18.90
2023-08-12T02:01:34.896Z,18.90
2023-08-12T02:04:02.848Z,18.80
2023-08-12T02:06:30.338Z,18.90
2023-08-12T02:08:57.704Z,18.90
2023-08-12T02:11:25.165Z,18.80
2023-08-12T02:13:53.918Z,18.80
2023-08-12T02:16:21.332Z,18.80
2023-08-12T02:18:49.155Z,18.80
2023-08-12T02:21:16.551Z,18.70
2023-08-12T02:23:45.301Z,18.70
2023-08-12T02:26:12.673Z,18.70
2023-08-12T02:28:40.063Z,18.70
2023-08-12T02:31:07.511Z,18.70
2023-08-12T02:33:34.894Z,18.70
2023-08-12T02:36:02.352Z,18.70
2023-08-12T02:38:29.803Z,18.70
2023-08-12T02:40:57.252Z,18.70
2023-08-12T02:43:24.662Z,18.70
2023-08-12T02:45:52.137Z,18.60
2023-08-12T02:48:19.616Z,18.60
2023-08-12T02:50:47.056Z,18.60
2023-08-12T02:53:14.660Z,18.60
2023-08-12T02:55:42.859Z,18.50
2023-08-12T02:58:10.286Z,18.50
2023-08-12T03:00:37.787Z,18.50
2023-08-12T03:03:05.655Z,18.50
2023-08-12T03:05:33.487Z,18.50
2023-08-12T03:08:02.604Z,18.50
2023-08-12T03:10:30.320Z,18.50
2023-08-12T03:12:57.697Z,18.50
2023-08-12T03:15:25.301Z,18.40
2023-08-12T03:17:53.421Z,18.40
2023-08-12T03:20:22.004Z,18.40
2023-08-12T03:22:49.429Z,18.30
2023-08-12T03:25:16.905Z,18.30
2023-08-12T03:27:45.438Z,18.20
2023-08-12T03:30:13.090Z,18.20
2023-08-12T03:32:42.485Z,18.20
2023-08-12T03:35:10.676Z,18.20
2023-08-12T03:37:38.170Z,18.20
2023-08-12T03:40:06.561Z,18.10
2023-08-12T03:42:34.886Z,18.10
2023-08-12T03:45:04.573Z,18.10
2023-08-12T03:47:32.005Z,18.00
2023-08-12T03:49:59.595Z,18.10
2023-08-12T03:52:27.018Z,18.00
2023-08-12T03:54:54.404Z,18.00
2023-08-12T03:57:22.713Z,18.10
2023-08-12T03:59:50.419Z,18.10
2023-08-12T04:02:17.879Z,18.10
2023-08-12T04:04:45.918Z,18.00
2023-08-12T04:07:13.714Z,18.00
2023-08-12T04:09:41.384Z,18.00
2023-08-12T04:12:08.900Z,17.90
2023-08-12T04:14:36.280Z,17.90
2023-08-12T04:17:03.754Z,17.90
2023-08-12T04:19:32.746Z,17.90
2023-08-12T04:22:00.210Z,17.90
2023-08-12T04:24:27.543Z,17.90
2023-08-12T04:26:54.994Z,17.90
2023-08-12T04:29:22.900Z,17.80
2023-08-12T04:31:50.358Z,17.80
2023-08-12T04:34:17.783Z,17.80
2023-08-12T04:36:45.256Z,17.80
2023-08-12T04:39:12.637Z,17.80
2023-08-12T04:41:40.123Z,17.80
2023-08-12T04:44:08.137Z,17.80
2023-08-12T04:46:35.541Z,17.80
2023-08-12T04:49:03.062Z,17.90
2023-08-12T04:51:30.646Z,17.90
2023-08-12T04:53:58.501Z,17.90
2023-08-12T04:56:26.270Z,17.90
2023-08-12T04:58:54.120Z,17.90
2023-08-12T05:01:21.609Z,17.90
2023-08-12T05:03:49.082Z,17.90
2023-08-12T05:06:16.462Z,17.90
2023-08-12T05:08:43.872Z,18.00
2023-08-12T05:11:11.317Z,18.00
2023-08-12T05:13:38.712Z,18.10
2023-08-12T05:16:06.131Z,18.10
2023-08-12T05:18:33.635Z,18.10
2023-08-12T05:21:01.505Z,18.20
2023-08-12T05:23:28.934Z,18.20
2023-08-12T05:25:56.347Z,18.30
2023-08-12T05:28:24.014Z,18.30
2023-08-12T05:30:51.611Z,18.40
2023-08-12T05:33:19.161Z,18.50
2023-08-12T05:35:49.195Z,18.50
2023-08-12T05:38:16.749Z,18.60
2023-08-12T05:40:44.136Z,18.60
2023-08-12T05:43:11.543Z,18.70
2023-08-12T05:45:38.884Z,18.70
2023-08-12T05:48:06.498Z,18.80
2023-08-12T05:50:33.968Z,18.90
2023-08-12T05:53:01.364Z,18.90
2023-08-12T05:55:28.796Z,19.00
2023-08-12T05:57:56.206Z,19.00
2023-08-12T06:00:23.616Z,19.10
2023-08-12T06:02:52.728Z,19.20
2023-08-12T06:05:20.360Z,19.30
2023-08-12T06:07:47.758Z,19.40
2023-08-12T06:10:15.260Z,19.40
2023-08-12T06:12:42.723Z,19.50
2023-08-12T06:15:10.459Z,19.60
2023-08-12T06:17:37.889Z,19.70
2023-08-12T06:20:05.841Z,19.70
2023-08-12T06:22:33.267Z,19.80
2023-08-12T06:25:00.633Z,19.80
2023-08-12T06:27:28.311Z,19.90
2023-08-12T06:29:55.657Z,20.00
2023-08-12T06:32:23.106Z,20.10
2023-08-12T06:34:50.506Z,20.20
2023-08-12T06:37:18.121Z,20.30
2023-08-12T06:39:45.504Z,20.30
2023-08-12T06:42:13.159Z,20.40
2023-08-12T06:44:40.765Z,20.50
2023-08-12T06:47:08.110Z,20.60
2023-08-12T06:49:35.473Z,20.60
2023-08-12T06:52:03.163Z,20.70
2023-08-12T06:54:30.546Z,20.70
2023-08-12T06:56:58.168Z,20.80
2023-08-12T06:59:25.561Z,20.80
2023-08-12T07:01:52.965Z,20.90
2023-08-12T07:04:20.370Z,20.90
2023-08-12T07:06:48.478Z,21.00
2023-08-12T07:09:15.860Z,21.10
2023-08-12T07:11:43.232Z,21.20
2023-08-12T07:14:10.612Z,21.30
2023-08-12T07:16:37.935Z,21.40
2023-08-12T07:19:05.472Z,21.50
2023-08-12T07:21:32.829Z,21.60
2023-08-12T07:24:03.708Z,21.70
2023-08-12T07:26:32.317Z,21.80
2023-08-12T07:28:59.720Z,21.90
2023-08-12T07:31:27.171Z,22.00
2023-08-12T07:33:54.706Z,22.10
2023-08-12T07:36:22.125Z,22.30
2023-08-12T07:38:49.584Z,22.40
2023-08-12T07:41:16.983Z,22.50
2023-08-12T07:43:44.517Z,22.60
2023-08-12T07:46:11.948Z,22.70
2023-08-12T07:48:39.568Z,22.80
2023-08-12T07:51:07.056Z,22.90
2023-08-12T07:53:34.602Z,23.00
2023-08-12T07:56:02.022Z,23.10
2023-08-12T07:58:31.147Z,23.30
2023-08-12T08:00:58.553Z,23.40
2023-08-12T08:03:26.421Z,23.50
2023-08-12T08:05:53.876Z,23.50
2023-08-12T08:08:21.453Z,23.50
2023-08-12T08:10:48.869Z,23.60
2023-08-12T08:13:16.302Z,23.70
2023-08-12T08:15:44.422Z,23.70
2023-08-12T08:18:12.149Z,23.80
2023-08-12T08:20:39.553Z,23.90
2023-08-12T08:23:06.919Z,24.10
2023-08-12T08:25:34.422Z,24.20
2023-08-12T08:28:01.807Z,24.30
2023-08-12T08:30:29.220Z,24.40
2023-08-12T08:32:56.818Z,24.60
2023-08-12T08:35:24.335Z,24.70
2023-08-12T08:37:51.706Z,24.70
2023-08-12T08:40:21.733Z,24.70
2023-08-12T08:42:53.779Z,24.80
2023-08-12T08:45:22.640Z,24.80
2023-08-12T08:47:50.851Z,25.00
2023-08-12T08:50:18.707Z,25.00
2023-08-12T08:52:46.117Z,25.00
2023-08-12T08:55:13.957Z,25.10
2023-08-12T08:57:47.826Z,25.10
2023-08-12T09:00:18.189Z,25.20
2023-08-12T09:02:48.273Z,25.20
2023-08-12T09:05:16.248Z,25.30
2023-08-12T09:07:45.241Z,25.30
2023-08-12T09:10:15.233Z,25.30
2023-08-12T09:12:44.288Z,25.30
2023-08-12T09:15:11.793Z,25.40
2023-08-12T09:17:39.657Z,25.30
2023-08-12T09:20:18.090Z,25.30
2023-08-12T09:22:45.489Z,25.30
2023-08-12T09:25:12.888Z,25.30
2023-08-12T09:27:40.396Z,25.30
2023-08-12T09:30:08.938Z,25.20
2023-08-12T09:32:36.601Z,25.20
2023-08-12T09:35:05.099Z,25.30
2023-08-12T09:37:32.591Z,25.30
2023-08-12T09:40:00.056Z,25.40
2023-08-12T09:42:27.644Z,25.50
2023-08-12T09:44:55.053Z,25.50
2023-08-12T09:49:53.896Z,25.60
2023-08-12T09:52:21.327Z,25.60
2023-08-12T09:54:48.724Z,25.60
2023-08-12T09:57:16.097Z,25.60
2023-08-12T09:59:43.494Z,25.50
2023-08-12T10:02:11.178Z,25.60
2023-08-12T10:04:43.443Z,25.60
2023-08-12T10:07:11.221Z,25.60
2023-08-12T10:09:38.911Z,25.60
2023-08-12T10:12:07.950Z,25.60
2023-08-12T10:14:35.379Z,25.70
2023-08-12T10:17:06.122Z,25.80
2023-08-12T10:19:35.012Z,26.00
2023-08-12T10:22:03.390Z,26.10
2023-08-12T10:24:30.906Z,26.20
2023-08-12T10:26:58.588Z,26.30
2023-08-12T10:29:26.036Z,26.20
2023-08-12T10:31:53.528Z,26.30
2023-08-12T10:34:24.556Z,26.20
2023-08-12T10:37:03.418Z,26.20
2023-08-12T10:39:35.049Z,26.20
2023-08-12T10:42:02.577Z,26.30
2023-08-12T10:44:52.615Z,26.30
2023-08-12T10:47:20.179Z,26.50
2023-08-12T10:49:51.043Z,26.60
2023-08-12T10:52:30.860Z,26.70
2023-08-12T10:55:17.468Z,26.70
2023-08-12T10:57:45.076Z,26.70
2023-08-12T11:00:16.882Z,26.70
2023-08-12T11:02:49.599Z,26.80
2023-08-12T11:05:17.299Z,26.70
2023-08-12T11:07:45.426Z,26.50
2023-08-12T11:10:15.798Z,26.40
2023-08-12T11:12:49.045Z,26.50
2023-08-12T11:15:16.539Z,26.50
2023-08-12T11:17:44.256Z,26.70
2023-08-12T11:20:12.476Z,26.70
2023-08-12T11:22:41.541Z,26.70
2023-08-12T11:25:10.780Z,26.70
2023-08-12T11:27:41.975Z,26.70
2023-08-12T11:30:11.411Z,26.70
2023-08-12T11:32:39.965Z,26.70
2023-08-12T11:35:08.544Z,26.90
2023-08-12T11:37:39.703Z,26.90
2023-08-12T11:40:09.940Z,27.00
2023-08-12T11:42:40.714Z,27.00
2023-08-12T11:45:08.512Z,27.20
2023-08-12T11:47:36.471Z,27.30
2023-08-12T11:50:07.594Z,27.50
2023-08-12T11:52:35.295Z,27.70
2023-08-12T11:55:02.769Z,27.90
2023-08-12T11:57:30.711Z,27.90
2023-08-12T12:00:15.455Z,27.90
2023-08-12T12:02:50.079Z,27.50
2023-08-12T12:05:19.871Z,27.50
2023-08-12T12:07:50.416Z,27.50
2023-08-12T12:10:31.057Z,27.70
2023-08-12T12:13:00.256Z,27.90
2023-08-12T12:15:27.630Z,28.00
2023-08-12T12:17:55.077Z,28.00
2023-08-12T12:20:22.902Z,28.00
2023-08-12T12:22:50.433Z,28.00
2023-08-12T12:25:20.381Z,28.10
2023-08-12T12:27:48.418Z,28.20
2023-08-12T12:30:16.461Z,28.30
2023-08-12T12:32:44.119Z,28.50
2023-08-12T12:35:12.832Z,28.40
2023-08-12T12:37:40.482Z,28.40
2023-08-12T12:40:08.558Z,28.50
2023-08-12T12:42:36.002Z,28.40
2023-08-12T12:45:03.904Z,28.40
2023-08-12T12:47:31.377Z,28.30
2023-08-12T12:49:58.973Z,28.40
2023-08-12T12:52:26.794Z,28.40
2023-08-12T12:54:54.215Z,28.50
2023-08-12T12:57:21.777Z,28.60
2023-08-12T12:59:49.649Z,28.60
2023-08-12T13:02:17.391Z,28.50
2023-08-12T13:04:45.760Z,28.50
2023-08-12T13:07:13.172Z,28.50
2023-08-12T13:09:42.162Z,28.60
2023-08-12T13:12:09.847Z,28.50
2023-08-12T13:14:37.272Z,28.50
2023-08-12T13:17:04.629Z,28.40
2023-08-12T13:19:32.014Z,28.40
2023-08-12T13:21:59.554Z,28.30
2023-08-12T13:24:27.419Z,28.30
2023-08-12T13:26:55.895Z,28.20
2023-08-12T13:29:23.341Z,28.20
2023-08-12T13:31:50.829Z,28.10
2023-08-12T13:34:18.670Z,28.20
2023-08-12T13:36:46.069Z,28.30
2023-08-12T13:39:13.474Z,28.20
2023-08-12T13:41:40.841Z,28.20
2023-08-12T13:44:08.229Z,28.20
2023-08-12T13:46:35.687Z,28.20
2023-08-12T13:49:03.143Z,28.20
2023-08-12T13:51:30.716Z,28.20
2023-08-12T13:53:58.071Z,28.20
2023-08-12T13:56:25.447Z,28.20
2023-08-12T13:58:52.798Z,28.40
2023-08-12T14:01:20.523Z,28.40
2023-08-12T14:03:47.948Z,28.50
2023-08-12T14:06:15.478Z,28.50
2023-08-12T14:08:42.936Z,28.70
2023-08-12T14:11:10.344Z,28.70
2023-08-12T14:13:37.709Z,28.80
2023-08-12T14:16:05.382Z,28.80
2023-08-12T14:18:32.799Z,28.80
2023-08-12T14:21:00.109Z,28.70
2023-08-12T14:23:27.489Z,28.60
2023-08-12T14:25:54.832Z,28.50
2023-08-12T14:28:22.317Z,28.50
2023-08-12T14:30:49.732Z,28.60
2023-08-12T14:33:17.273Z,28.60
2023-08-12T14:35:44.736Z,28.60
2023-08-12T14:38:13.844Z,28.70
2023-08-12T14:40:41.236Z,28.90
2023-08-12T14:43:08.795Z,29.00
2023-08-12T14:45:36.131Z,29.20
2023-08-12T14:48:03.775Z,29.30
2023-08-12T14:50:33.026Z,29.30
2023-08-12T14:53:00.572Z,29.30
2023-08-12T14:55:27.998Z,29.30
2023-08-12T14:57:55.403Z,29.20
2023-08-12T15:00:22.845Z,29.20
2023-08-12T15:02:50.302Z,29.10
2023-08-12T15:05:18.357Z,29.00
2023-08-12T15:07:45.827Z,28.90
2023-08-12T15:10:13.246Z,28.70
2023-08-12T15:12:40.637Z,28.70
2023-08-12T15:15:08.218Z,28.50
2023-08-12T15:17:35.705Z,28.40
2023-08-12T15:20:03.144Z,28.40
2023-08-12T15:22:30.545Z,28.30
2023-08-12T15:24:57.955Z,28.20
2023-08-12T15:27:25.443Z,28.20
2023-08-12T15:29:52.962Z,28.10
2023-08-12T15:32:20.454Z,28.10
2023-08-12T15:34:47.909Z,28.10
2023-08-12T15:37:15.578Z,28.00
2023-08-12T15:39:43.065Z,28.10
2023-08-12T15:42:10.574Z,28.10
2023-08-12T15:44:39.034Z,28.00
2023-08-12T15:47:08.346Z,28.00
2023-08-12T15:49:35.748Z,27.90
2023-08-12T15:52:03.578Z,27.90
2023-08-12T15:54:31.017Z,27.90
2023-08-12T15:56:58.495Z,27.90
2023-08-12T15:59:26.200Z,27.80
2023-08-12T16:01:53.623Z,27.80
2023-08-12T16:04:21.107Z,27.70
2023-08-12T16:06:48.499Z,27.70
2023-08-12T16:09:19.281Z,27.70
2023-08-12T16:11:48.109Z,27.70
2023-08-12T16:14:15.793Z,27.70
2023-08-12T16:16:43.319Z,27.80
2023-08-12T16:19:12.244Z,27.80
2023-08-12T16:21:39.692Z,27.70
2023-08-12T16:24:07.518Z,27.80
2023-08-12T16:26:35.064Z,27.70
2023-08-12T16:29:02.796Z,27.80
2023-08-12T16:31:31.379Z,27.80
2023-08-12T16:33:58.787Z,27.80
2023-08-12T16:36:26.182Z,27.70
2023-08-12T16:38:53.598Z,27.60
2023-08-12T16:41:21.011Z,27.50
2023-08-12T16:43:48.442Z,27.40
2023-08-12T16:46:15.804Z,27.30
2023-08-12T16:48:43.214Z,27.20
2023-08-12T16:51:10.550Z,27.10
2023-08-12T16:53:37.947Z,27.20
2023-08-12T16:56:05.462Z,27.20
2023-08-12T16:58:33.973Z,27.20
2023-08-12T17:01:01.562Z,27.20
2023-08-12T17:03:29.082Z,27.20
2023-08-12T17:05:56.623Z,27.20
2023-08-12T17:08:24.033Z,27.20
2023-08-12T17:10:51.460Z,27.20
2023-08-12T17:13:19.735Z,27.10
2023-08-12T17:15:47.531Z,27.10
2023-08-12T17:18:15.091Z,27.00
2023-08-12T17:20:43.049Z,27.00
2023-08-12T17:23:10.416Z,26.90
2023-08-12T17:25:37.815Z,26.90
2023-08-12T17:28:05.586Z,26.80
2023-08-12T17:30:35.211Z,26.80
2023-08-12T17:33:03.446Z,26.70
2023-08-12T17:35:33.505Z,26.60
2023-08-12T17:38:01.362Z,26.60
2023-08-12T17:40:28.821Z,26.50
2023-08-12T17:42:56.428Z,26.50
2023-08-12T17:45:23.861Z,26.50
2023-08-12T17:48:01.757Z,26.40
2023-08-12T17:50:29.425Z,26.30
2023-08-12T17:52:56.857Z,26.30
2023-08-12T17:55:24.289Z,26.30
2023-08-12T17:57:51.765Z,26.20
2023-08-12T18:00:21.048Z,26.20
2023-08-12T18:02:48.579Z,26.10
2023-08-12T18:05:16.185Z,26.00
2023-08-12T18:07:43.603Z,26.00
2023-08-12T18:10:11.478Z,26.00
2023-08-12T18:12:39.051Z,25.90
2023-08-12T18:15:08.044Z,25.80
2023-08-12T18:17:35.619Z,25.80
2023-08-12T18:20:05.758Z,25.70
2023-08-12T18:22:33.086Z,25.60
2023-08-12T18:25:00.489Z,25.50
2023-08-12T18:27:27.855Z,25.40
2023-08-12T18:29:55.364Z,25.40
2023-08-12T18:32:22.754Z,25.40
2023-08-12T18:34:50.170Z,25.30
2023-08-12T18:37:17.954Z,25.20
2023-08-12T18:39:46.126Z,25.20
2023-08-12T18:42:13.724Z,25.10
2023-08-12T18:44:41.226Z,25.10
2023-08-12T18:47:08.563Z,25.00
2023-08-12T18:49:35.997Z,24.90
2023-08-12T18:52:03.417Z,24.80
2023-08-12T18:54:31.108Z,24.80
2023-08-12T18:56:58.654Z,24.80
2023-08-12T18:59:26.539Z,24.70
2023-08-12T19:01:54.043Z,24.70
2023-08-12T19:04:21.491Z,24.70
2023-08-12T19:06:49.421Z,24.70
2023-08-12T19:09:20.062Z,24.70
2023-08-12T19:11:47.571Z,24.60
2023-08-12T19:14:14.992Z,24.50
2023-08-12T19:16:42.409Z,24.50
2023-08-12T19:19:11.414Z,24.50
2023-08-12T19:21:39.142Z,24.50
2023-08-12T19:24:07.010Z,24.40
2023-08-12T19:26:35.207Z,24.40
2023-08-12T19:29:02.796Z,24.40
2023-08-12T19:31:30.227Z,24.30
2023-08-12T19:33:59.147Z,24.30
2023-08-12T19:36:26.635Z,24.30
2023-08-12T19:38:54.014Z,24.20
2023-08-12T19:41:21.381Z,24.20
2023-08-12T19:43:48.754Z,24.10
2023-08-12T19:46:16.153Z,24.10
2023-08-12T19:48:54.304Z,24.00
2023-08-12T19:51:21.771Z,24.00
2023-08-12T19:53:49.249Z,23.90
2023-08-12T19:56:16.669Z,23.90
2023-08-12T19:58:44.764Z,23.90
2023-08-12T20:01:12.169Z,23.80
2023-08-12T20:03:39.721Z,23.80
2023-08-12T20:06:07.208Z,23.80
2023-08-12T20:08:34.939Z,23.80
2023-08-12T20:11:02.419Z,23.70
2023-08-12T20:13:29.861Z,23.70
2023-08-12T20:15:59.734Z,23.60
2023-08-12T20:18:27.859Z,23.60
2023-08-12T20:20:55.448Z,23.50
2023-08-12T20:23:23.041Z,23.50
2023-08-12T20:25:50.684Z,23.50
2023-08-12T20:28:18.037Z,23.40
2023-08-12T20:30:45.497Z,23.40
2023-08-12T20:33:12.900Z,23.30
2023-08-12T20:35:40.262Z,23.30
2023-08-12T20:38:07.666Z,23.20
2023-08-12T20:40:35.123Z,23.20
2023-08-12T20:43:02.668Z,23.10
2023-08-12T20:45:30.042Z,23.20
2023-08-12T20:47:57.450Z,23.10
2023-08-12T20:50:24.829Z,23.10
2023-08-12T20:52:52.872Z,23.10
2023-08-12T20:55:20.315Z,23.10
2023-08-12T20:57:49.276Z,23.00
2023-08-12T21:00:16.834Z,23.00
2023-08-12T21:02:45.874Z,23.00
2023-08-12T21:05:13.548Z,23.00
2023-08-12T21:07:41.326Z,23.00
2023-08-12T21:10:10.325Z,23.00
2023-08-12T21:12:38.028Z,23.00
2023-08-12T21:15:06.078Z,23.00
2023-08-12T21:17:33.486Z,23.00
2023-08-12T21:20:00.893Z,23.00
2023-08-12T21:22:28.299Z,23.00
2023-08-12T21:24:55.698Z,23.00
2023-08-12T21:27:23.266Z,23.00
2023-08-12T21:29:51.560Z,22.90
2023-08-12T21:32:18.924Z,22.90
2023-08-12T21:34:46.303Z,23.00
2023-08-12T21:37:14.569Z,23.00
2023-08-12T21:39:41.923Z,23.00
2023-08-12T21:42:09.367Z,23.00
2023-08-12T21:44:36.847Z,23.00
2023-08-12T21:47:04.267Z,22.90
2023-08-12T21:49:31.741Z,22.90
2023-08-12T21:51:59.098Z,22.90
2023-08-12T21:54:26.524Z,22.80
2023-08-12T21:56:53.856Z,22.80
2023-08-12T21:59:21.283Z,22.80
2023-08-12T22:01:48.827Z,22.70
2023-08-12T22:04:16.304Z,22.70
2023-08-12T22:06:44.389Z,22.70
2023-08-12T22:09:11.751Z,22.60
2023-08-12T22:11:39.106Z,22.60
2023-08-12T22:14:06.897Z,22.50
2023-08-12T22:16:34.264Z,22.50
2023-08-12T22:19:02.095Z,22.50
2023-08-12T22:21:29.490Z,22.50
2023-08-12T22:23:56.901Z,22.40
2023-08-12T22:26:24.253Z,22.40
2023-08-12T22:28:51.680Z,22.30
2023-08-12T22:31:19.093Z,22.30
2023-08-12T22:33:46.508Z,22.30
2023-08-12T22:36:13.887Z,22.30
2023-08-12T22:38:41.278Z,22.30
2023-08-12T22:41:08.711Z,22.30
2023-08-12T22:43:36.093Z,22.30
2023-08-12T22:46:03.517Z,22.30
2023-08-12T22:48:30.893Z,22.20
2023-08-12T22:50:58.335Z,22.20
2023-08-12T22:53:25.752Z,22.20
2023-08-12T22:55:53.130Z,22.20
2023-08-12T22:58:20.543Z,22.20
2023-08-12T23:00:48.213Z,22.20
2023-08-12T23:03:15.974Z,22.20
2023-08-12T23:05:43.599Z,22.20
2023-08-12T23:08:10.943Z,22.10
2023-08-12T23:10:38.340Z,22.10
2023-08-12T23:13:06.687Z,22.00
2023-08-12T23:15:34.145Z,22.00
2023-08-12T23:18:01.623Z,22.00
2023-08-12T23:20:29.060Z,21.90
2023-08-12T23:22:56.546Z,21.90
2023-08-12T23:25:23.910Z,21.90
2023-08-12T23:27:51.333Z,21.80
2023-08-12T23:30:19.361Z,21.80
2023-08-12T23:32:46.813Z,21.80
2023-08-12T23:35:14.285Z,21.80
2023-08-12T23:37:41.848Z,21.70
2023-08-12T23:40:12.978Z,21.70
2023-08-12T23:42:40.999Z,21.70
2023-08-12T23:45:10.051Z,21.70
2023-08-12T23:47:43.365Z,21.70
2023-08-12T23:50:12.633Z,21.70
2023-08-12T23:52:40.182Z,21.70
2023-08-12T23:55:07.858Z,21.70
2023-08-12T23:57:36.121Z,21.70
